Time;durP1;ratioP1;P1;durP2;ratioP2;P2;SDS_P1;SDS_P2;PMS_P1;PMS_P2;Temp;Humidity;BMP_temperature;BMP_pressure;BME280_temperature;BME280_humidity;BME280_pressure;Samples;Min_cycle;Max_cycle;Signal;HPM_P1;HPM_P2
2023/07/10 00:00:22;;;;;;;18.90;11.65;;;22.00;71.30;;;;;;5072583;28;20413;-72
2023/07/10 00:02:49;;;;;;;19.20;11.68;;;21.90;71.60;;;;;;5072743;28;20388;-72
2023/07/10 00:05:16;;;;;;;17.08;11.48;;;21.90;71.60;;;;;;5072453;28;20388;-73
2023/07/10 00:07:42;;;;;;;17.52;12.38;;;21.90;71.10;;;;;;5072256;28;20395;-71
2023/07/10 00:10:16;;;;;;;19.92;11.63;;;22.00;71.20;;;;;;5071747;28;20871;-72
2023/07/10 00:12:43;;;;;;;22.60;13.38;;;22.00;71.10;;;;;;5072816;28;20479;-71
2023/07/10 00:15:20;;;;;;;20.10;12.50;;;21.90;70.70;;;;;;5071229;28;20418;-71
2023/07/10 00:17:47;;;;;;;19.73;14.45;;;21.90;72.30;;;;;;5072691;28;20967;-72
2023/07/10 00:20:15;;;;;;;22.33;14.02;;;21.70;74.30;;;;;;5072148;28;20388;-72
2023/07/10 00:22:41;;;;;;;19.65;13.85;;;21.60;75.50;;;;;;5072050;28;20402;-71
2023/07/10 00:25:10;;;;;;;21.27;14.52;;;21.40;77.00;;;;;;5072631;28;20391;-72
2023/07/10 00:27:36;;;;;;;20.25;14.23;;;21.40;78.00;;;;;;5072247;28;20384;-73
2023/07/10 00:30:12;;;;;;;18.27;14.27;;;21.20;79.30;;;;;;5073718;28;20445;-73
2023/07/10 00:32:38;;;;;;;25.05;14.13;;;21.20;80.50;;;;;;5036407;28;20406;-71
2023/07/10 00:35:04;;;;;;;21.00;14.13;;;21.10;82.00;;;;;;5072985;28;20903;-72
2023/07/10 00:37:30;;;;;;;20.42;13.80;;;21.20;80.90;;;;;;5073607;28;20383;-72
2023/07/10 00:39:55;;;;;;;21.50;13.70;;;21.30;80.80;;;;;;5073589;28;20387;-72
2023/07/10 00:42:23;;;;;;;17.97;14.10;;;21.30;80.40;;;;;;5073327;28;20391;-72
2023/07/10 00:44:58;;;;;;;19.95;14.15;;;21.50;77.00;;;;;;5076180;28;20380;-71
2023/07/10 00:47:39;;;;;;;20.90;14.73;;;21.50;75.60;;;;;;5071790;28;20386;-71
2023/07/10 00:50:29;;;;;;;26.42;16.38;;;21.50;75.80;;;;;;5072047;28;20403;-73
2023/07/10 00:52:58;;;;;;;23.00;17.05;;;21.40;77.00;;;;;;5075722;28;20406;-73
2023/07/10 00:55:37;;;;;;;26.63;16.73;;;21.30;78.60;;;;;;5077411;28;20407;-72
2023/07/10 00:58:27;;;;;;;23.63;18.08;;;21.30;79.60;;;;;;5075584;28;20704;-71
2023/07/10 01:00:59;;;;;;;28.02;19.50;;;21.30;79.90;;;;;;5057958;28;20380;-73
2023/07/10 01:03:24;;;;;;;26.80;19.30;;;21.20;80.60;;;;;;5075085;28;20380;-72
2023/07/10 01:05:50;;;;;;;28.25;19.33;;;21.20;81.20;;;;;;5075278;28;20384;-73
2023/07/10 01:08:16;;;;;;;27.27;19.45;;;21.30;80.40;;;;;;5078471;28;20379;-72
2023/07/10 01:10:41;;;;;;;26.43;19.23;;;21.40;77.90;;;;;;5075042;28;20379;-73
2023/07/10 01:13:07;;;;;;;34.45;18.98;;;21.40;76.60;;;;;;5077891;28;20390;-73
2023/07/10 01:15:32;;;;;;;29.13;21.23;;;21.40;76.90;;;;;;5080061;28;20544;-72
2023/07/10 01:17:58;;;;;;;27.33;20.50;;;21.40;76.00;;;;;;5083335;22;20530;-72
2023/07/10 01:20:46;;;;;;;30.55;21.70;;;21.30;76.50;;;;;;5070086;28;20376;-72
2023/07/10 01:23:12;;;;;;;34.38;22.20;;;21.30;76.20;;;;;;5070160;28;20790;-72
2023/07/10 01:26:00;;;;;;;32.15;21.80;;;21.30;76.50;;;;;;5070224;28;20886;-72
2023/07/10 01:28:45;;;;;;;34.25;22.67;;;21.30;75.30;;;;;;5050388;28;20421;-72
2023/07/10 01:31:15;;;;;;;33.50;25.33;;;21.30;74.00;;;;;;5049903;28;20405;-74
2023/07/10 01:33:48;;;;;;;37.10;27.00;;;21.30;72.90;;;;;;5049983;28;20376;-73
2023/07/10 01:36:17;;;;;;;42.08;29.33;;;21.30;72.30;;;;;;5049881;28;20750;-73
2023/07/10 01:38:45;;;;;;;41.10;28.83;;;21.30;70.80;;;;;;5049930;28;20389;-73
2023/07/10 01:41:29;;;;;;;38.40;28.35;;;21.20;71.60;;;;;;5051219;28;20500;-73
2023/07/10 01:43:55;;;;;;;40.38;27.73;;;21.10;70.70;;;;;;5053089;28;20482;-73
2023/07/10 01:46:24;;;;;;;38.17;26.40;;;21.10;71.30;;;;;;5052895;28;20400;-74
2023/07/10 01:48:53;;;;;;;33.83;26.25;;;21.10;71.80;;;;;;5052651;28;20423;-74
2023/07/10 01:51:21;;;;;;;41.03;26.95;;;21.10;71.50;;;;;;5052275;28;20460;-74
2023/07/10 01:53:47;;;;;;;36.97;24.95;;;21.10;70.40;;;;;;5051408;28;20416;-73
2023/07/10 01:56:15;;;;;;;38.28;26.17;;;21.10;70.20;;;;;;5052191;28;20409;-73
2023/07/10 01:58:40;;;;;;;35.35;25.27;;;21.00;69.90;;;;;;5053576;28;20412;-73
2023/07/10 02:01:06;;;;;;;35.45;24.20;;;21.00;69.70;;;;;;5035793;28;20386;-74
2023/07/10 02:03:32;;;;;;;33.95;25.35;;;21.00;70.10;;;;;;5035811;28;20385;-73
2023/07/10 02:05:57;;;;;;;33.87;23.63;;;21.00;70.00;;;;;;5053147;28;20397;-73
2023/07/10 02:08:23;;;;;;;31.10;23.77;;;21.00;69.30;;;;;;5053375;28;20381;-73
2023/07/10 02:10:48;;;;;;;32.00;23.20;;;21.00;68.80;;;;;;5052997;28;20419;-73
2023/07/10 02:13:14;;;;;;;41.07;23.10;;;21.00;67.70;;;;;;5052944;28;20425;-73
2023/07/10 02:15:40;;;;;;;34.47;23.55;;;21.00;69.10;;;;;;5053225;28;20460;-73
2023/07/10 02:18:06;;;;;;;40.20;22.33;;;21.00;69.60;;;;;;5052824;28;20397;-73
2023/07/10 02:20:31;;;;;;;28.80;20.02;;;20.90;67.80;;;;;;5053369;28;20392;-73
2023/07/10 02:22:57;;;;;;;28.17;20.13;;;20.90;66.70;;;;;;5052849;28;20387;-73
2023/07/10 02:25:22;;;;;;;28.23;19.57;;;20.90;67.50;;;;;;5053235;28;20495;-74
2023/07/10 02:27:48;;;;;;;30.17;20.60;;;20.90;68.70;;;;;;5053159;28;20709;-73
2023/07/10 02:30:13;;;;;;;31.23;20.37;;;20.90;68.90;;;;;;5052979;28;20381;-73
2023/07/10 02:32:41;;;;;;;26.17;20.13;;;20.90;68.70;;;;;;5052302;28;22396;-73
2023/07/10 02:35:07;;;;;;;31.53;22.30;;;21.00;67.80;;;;;;5053290;28;20492;-74
2023/07/10 02:37:32;;;;;;;37.50;22.10;;;21.00;67.20;;;;;;5052928;28;20390;-73
2023/07/10 02:39:58;;;;;;;33.78;23.10;;;21.00;67.60;;;;;;5052849;28;20385;-73
2023/07/10 02:42:23;;;;;;;34.00;23.43;;;20.90;68.40;;;;;;5052775;28;20393;-73
2023/07/10 02:44:49;;;;;;;35.60;23.48;;;20.80;69.10;;;;;;5052654;28;20500;-73
2023/07/10 02:47:15;;;;;;;32.33;24.00;;;20.80;69.90;;;;;;5052776;28;20385;-73
2023/07/10 02:49:40;;;;;;;38.70;23.30;;;20.90;69.80;;;;;;5052671;28;20390;-73
2023/07/10 02:52:06;;;;;;;30.83;22.63;;;20.90;70.00;;;;;;5052479;28;20389;-73
2023/07/10 02:54:32;;;;;;;34.05;23.75;;;20.90;69.40;;;;;;5052525;28;20409;-73
2023/07/10 02:56:57;;;;;;;35.60;24.97;;;20.90;69.60;;;;;;5052246;28;20423;-73
2023/07/10 02:59:29;;;;;;;35.43;23.63;;;20.80;70.40;;;;;;5034550;28;20390;-74
2023/07/10 03:01:55;;;;;;;33.67;23.73;;;20.80;71.90;;;;;;5052061;28;20460;-73
2023/07/10 03:04:21;;;;;;;33.65;23.60;;;20.80;71.50;;;;;;5052387;28;20528;-73
2023/07/10 03:06:48;;;;;;;34.15;24.52;;;20.90;70.30;;;;;;5052072;28;20389;-73
2023/07/10 03:09:14;;;;;;;33.45;24.25;;;20.80;70.60;;;;;;5034775;28;20461;-73
2023/07/10 03:11:39;;;;;;;35.92;24.70;;;20.90;70.30;;;;;;5051862;28;20389;-73
2023/07/10 03:14:05;;;;;;;29.50;23.33;;;21.00;69.20;;;;;;5052273;28;20903;-73
2023/07/10 03:16:31;;;;;;;35.57;24.63;;;21.00;69.20;;;;;;5033755;28;20421;-73
2023/07/10 03:18:56;;;;;;;41.95;27.50;;;20.90;70.40;;;;;;5051963;28;20382;-73
2023/07/10 03:21:22;;;;;;;39.93;29.23;;;20.80;71.80;;;;;;5051930;28;20759;-73
2023/07/10 03:23:48;;;;;;;40.80;28.13;;;20.90;70.70;;;;;;5051774;28;20396;-73
2023/07/10 03:26:14;;;;;;;45.63;32.60;;;20.90;69.60;;;;;;5051899;28;20438;-73
2023/07/10 03:28:39;;;;;;;46.83;33.90;;;20.90;70.10;;;;;;5051837;28;20786;-73
2023/07/10 03:31:06;;;;;;;44.80;33.28;;;20.90;70.90;;;;;;5051818;28;20762;-74
2023/07/10 03:33:33;;;;;;;44.80;32.30;;;20.90;71.20;;;;;;5034011;28;20408;-73
2023/07/10 03:36:00;;;;;;;47.10;33.67;;;20.80;71.00;;;;;;5051470;28;20830;-74
2023/07/10 03:38:26;;;;;;;47.63;34.17;;;20.90;70.50;;;;;;5033884;28;20468;-73
2023/07/10 03:40:53;;;;;;;53.20;33.40;;;20.80;70.50;;;;;;5051400;28;20408;-73
2023/07/10 03:43:19;;;;;;;49.03;33.92;;;20.80;70.90;;;;;;5051521;28;20429;-73
2023/07/10 03:45:45;;;;;;;51.28;34.00;;;20.80;71.90;;;;;;5051401;28;20480;-74
2023/07/10 03:48:10;;;;;;;53.45;35.95;;;20.80;71.20;;;;;;5051682;28;20393;-74
2023/07/10 03:50:36;;;;;;;54.07;35.57;;;20.80;71.20;;;;;;5051186;28;20750;-73
2023/07/10 03:53:02;;;;;;;53.40;36.90;;;20.90;70.90;;;;;;5051251;28;20386;-73
2023/07/10 03:55:27;;;;;;;56.40;36.60;;;20.90;70.20;;;;;;5051239;28;20797;-73
2023/07/10 03:57:53;;;;;;;61.17;40.63;;;20.80;70.60;;;;;;5051110;28;20464;-73
2023/07/10 04:00:19;;;;;;;60.23;39.53;;;20.80;70.60;;;;;;5051313;28;20523;-73
2023/07/10 04:02:44;;;;;;;55.63;38.85;;;20.70;72.20;;;;;;5050476;28;20378;-74
2023/07/10 04:05:10;;;;;;;54.60;38.20;;;20.60;72.30;;;;;;5045148;28;20399;-74
2023/07/10 04:07:35;;;;;;;55.20;39.27;;;20.70;73.00;;;;;;5045106;28;20408;-76
2023/07/10 04:10:02;;;;;;;57.72;40.20;;;20.70;72.20;;;;;;5050643;28;20401;-74
2023/07/10 04:12:27;;;;;;;61.63;38.90;;;20.70;72.10;;;;;;5047774;28;20467;-71
2023/07/10 04:14:53;;;;;;;56.60;37.60;;;20.80;70.70;;;;;;5042595;28;20793;-74
2023/07/10 04:17:18;;;;;;;55.08;38.45;;;20.70;70.90;;;;;;5042453;28;20525;-74
2023/07/10 04:19:44;;;;;;;61.50;37.97;;;20.50;72.80;;;;;;5031111;28;20484;-74
2023/07/10 04:22:10;;;;;;;59.60;38.42;;;20.50;71.70;;;;;;5030021;28;20383;-74
2023/07/10 04:24:35;;;;;;;61.08;38.72;;;20.50;71.50;;;;;;5031452;28;20379;-74
2023/07/10 04:27:01;;;;;;;63.00;39.87;;;20.40;73.10;;;;;;5031868;28;20387;-73
2023/07/10 04:29:27;;;;;;;56.97;38.27;;;20.40;73.40;;;;;;5031016;28;20379;-69
2023/07/10 04:31:52;;;;;;;58.38;36.50;;;20.40;73.80;;;;;;5049525;28;20401;-70
2023/07/10 04:34:18;;;;;;;58.37;37.40;;;20.40;74.00;;;;;;5050517;28;20532;-70
2023/07/10 04:36:43;;;;;;;53.30;36.57;;;20.40;74.30;;;;;;5050292;28;20766;-70
2023/07/10 04:39:10;;;;;;;56.25;35.28;;;20.40;73.90;;;;;;5050476;28;20731;-70
2023/07/10 04:41:37;;;;;;;56.60;36.15;;;20.40;73.50;;;;;;5050352;28;20389;-72
2023/07/10 04:44:03;;;;;;;53.85;35.28;;;20.30;73.30;;;;;;5050203;28;20381;-72
2023/07/10 04:46:29;;;;;;;55.88;33.78;;;20.40;72.50;;;;;;5049760;28;20400;-71
2023/07/10 04:48:55;;;;;;;50.15;33.10;;;20.30;72.40;;;;;;5050167;28;20381;-73
2023/07/10 04:51:20;;;;;;;49.57;31.57;;;20.50;69.70;;;;;;5050318;28;20397;-72
2023/07/10 04:53:47;;;;;;;49.93;31.80;;;20.50;68.80;;;;;;5050317;28;20487;-72
2023/07/10 04:56:14;;;;;;;44.58;29.10;;;20.30;69.10;;;;;;5050270;28;20412;-73
2023/07/10 04:58:53;;;;;;;46.85;29.67;;;20.50;67.80;;;;;;5050262;28;20462;-73
2023/07/10 05:01:21;;;;;;;48.13;29.58;;;20.60;67.40;;;;;;5050205;28;20377;-72
2023/07/10 05:03:48;;;;;;;49.03;28.40;;;20.60;65.90;;;;;;5050209;28;20876;-72
2023/07/10 05:06:14;;;;;;;42.75;28.45;;;20.50;66.30;;;;;;5049994;28;20392;-72
2023/07/10 05:08:40;;;;;;;50.90;28.23;;;20.50;66.40;;;;;;5050016;28;20389;-72
2023/07/10 05:11:05;;;;;;;40.60;27.77;;;20.70;64.50;;;;;;5050236;28;20384;-72
2023/07/10 05:13:31;;;;;;;44.85;27.70;;;20.60;64.60;;;;;;5050094;28;20416;-72
2023/07/10 05:15:58;;;;;;;42.42;27.67;;;20.50;65.60;;;;;;5050048;28;20923;-72
2023/07/10 05:18:25;;;;;;;45.03;27.30;;;20.40;66.10;;;;;;5050297;28;20407;-72
2023/07/10 05:20:52;;;;;;;53.53;28.23;;;20.40;66.50;;;;;;5050075;28;20382;-71
2023/07/10 05:23:18;;;;;;;40.43;26.27;;;20.50;65.60;;;;;;5050149;28;20881;-72
2023/07/10 05:25:55;;;;;;;44.03;26.57;;;20.50;65.50;;;;;;5049845;28;20389;-71
2023/07/10 05:28:21;;;;;;;40.10;26.42;;;20.50;65.30;;;;;;5050082;28;20400;-72
2023/07/10 05:30:46;;;;;;;38.28;25.92;;;20.50;65.30;;;;;;5049761;28;20392;-71
2023/07/10 05:33:12;;;;;;;39.60;25.00;;;20.60;64.70;;;;;;5050138;28;20373;-71
2023/07/10 05:35:47;;;;;;;40.42;25.27;;;20.80;62.20;;;;;;5053926;28;20558;-72
2023/07/10 05:38:12;;;;;;;38.33;24.45;;;20.80;62.10;;;;;;5053702;28;20800;-72
2023/07/10 05:40:41;;;;;;;35.90;23.93;;;21.00;60.00;;;;;;5053948;28;20381;-71
2023/07/10 05:43:06;;;;;;;40.90;25.05;;;21.00;59.20;;;;;;5035719;28;20382;-71
2023/07/10 05:45:32;;;;;;;41.87;25.10;;;21.00;60.50;;;;;;5054124;28;20408;-72
2023/07/10 05:47:57;;;;;;;42.97;24.03;;;21.00;60.50;;;;;;5053528;28;20408;-71
2023/07/10 05:50:23;;;;;;;40.33;23.52;;;21.10;59.90;;;;;;5053763;28;20413;-72
2023/07/10 05:52:48;;;;;;;39.67;22.43;;;21.20;59.10;;;;;;5053376;28;20401;-71
2023/07/10 05:55:14;;;;;;;36.67;22.33;;;21.10;59.30;;;;;;5053247;28;20409;-72
2023/07/10 05:57:39;;;;;;;34.00;22.33;;;21.20;58.90;;;;;;5053424;28;20476;-72
2023/07/10 06:00:07;;;;;;;35.70;22.30;;;21.20;57.90;;;;;;5053606;28;20507;-72
2023/07/10 06:02:32;;;;;;;33.15;21.23;;;21.10;57.90;;;;;;5053493;28;20381;-72
2023/07/10 06:04:58;;;;;;;32.90;19.33;;;21.10;58.00;;;;;;5053528;28;20476;-72
2023/07/10 06:07:23;;;;;;;30.00;20.43;;;21.20;57.40;;;;;;5053110;28;20800;-72
2023/07/10 06:09:49;;;;;;;31.67;20.93;;;21.30;56.20;;;;;;5053325;28;20390;-71
2023/07/10 06:12:14;;;;;;;33.87;20.63;;;21.30;56.10;;;;;;5053212;28;20390;-72
2023/07/10 06:14:40;;;;;;;29.77;20.60;;;21.30;56.10;;;;;;5053398;28;20386;-72
2023/07/10 06:17:05;;;;;;;31.83;20.33;;;21.30;55.50;;;;;;5054050;28;20820;-72
2023/07/10 06:19:31;;;;;;;34.87;20.43;;;21.40;55.00;;;;;;5053580;28;20382;-72
2023/07/10 06:22:11;;;;;;;32.42;20.23;;;21.30;55.60;;;;;;5053661;28;20396;-72
2023/07/10 06:24:38;;;;;;;31.08;19.73;;;21.40;54.50;;;;;;5053008;28;20397;-72
2023/07/10 06:27:05;;;;;;;33.50;19.10;;;21.50;54.60;;;;;;5052906;28;20861;-72
2023/07/10 06:29:32;;;;;;;31.42;18.80;;;21.50;54.90;;;;;;5052568;28;20404;-72
2023/07/10 06:31:58;;;;;;;27.35;18.02;;;21.60;54.00;;;;;;5052624;28;20381;-72
2023/07/10 06:34:23;;;;;;;32.08;19.52;;;21.70;52.60;;;;;;5052891;28;20862;-72
2023/07/10 06:36:49;;;;;;;35.30;19.20;;;21.80;52.30;;;;;;5052462;28;20409;-72
2023/07/10 06:39:14;;;;;;;27.23;18.63;;;21.80;51.50;;;;;;5053360;28;20498;-73
2023/07/10 06:41:40;;;;;;;33.80;19.50;;;21.80;51.90;;;;;;5054304;28;20409;-71
2023/07/10 06:44:06;;;;;;;33.60;19.17;;;21.80;51.30;;;;;;5053909;28;20405;-71
2023/07/10 06:46:31;;;;;;;32.08;21.42;;;21.80;53.00;;;;;;5053229;28;20389;-71
2023/07/10 06:48:57;;;;;;;36.80;22.30;;;21.70;52.30;;;;;;5054315;28;20387;-71
2023/07/10 06:51:22;;;;;;;32.43;21.17;;;21.70;52.20;;;;;;5055534;28;20390;-71
2023/07/10 06:53:48;;;;;;;37.03;22.73;;;21.80;51.80;;;;;;5065166;28;20393;-71
2023/07/10 06:56:14;;;;;;;31.10;21.70;;;21.80;50.80;;;;;;5063277;28;20440;-71
2023/07/10 06:58:40;;;;;;;30.40;21.30;;;21.80;51.50;;;;;;5059626;28;20380;-71
2023/07/10 07:01:05;;;;;;;30.07;20.43;;;21.90;51.60;;;;;;5052548;28;20800;-72
2023/07/10 07:03:31;;;;;;;31.58;19.58;;;22.20;49.00;;;;;;5052493;28;20389;-71
2023/07/10 07:05:57;;;;;;;35.08;19.13;;;22.30;45.20;;;;;;5051876;28;20735;-71
2023/07/10 07:08:24;;;;;;;30.80;17.57;;;22.40;45.70;;;;;;5053081;28;20869;-72
2023/07/10 07:10:51;;;;;;;29.38;17.33;;;22.40;44.10;;;;;;5053776;28;20397;-73
2023/07/10 07:13:17;;;;;;;25.70;15.33;;;22.30;44.10;;;;;;5052522;28;20389;-71
2023/07/10 07:15:48;;;;;;;19.02;13.40;;;22.50;41.50;;;;;;5052531;28;20496;-72
2023/07/10 07:18:13;;;;;;;19.33;14.65;;;22.40;39.40;;;;;;5081625;22;20444;-74
2023/07/10 07:20:39;;;;;;;24.83;14.32;;;22.30;39.90;;;;;;5055499;28;20375;-73
2023/07/10 07:23:04;;;;;;;24.77;14.00;;;22.20;41.80;;;;;;5055463;28;20396;-75
2023/07/10 07:25:30;;;;;;;21.70;13.32;;;22.10;41.20;;;;;;5073140;28;20471;-75
2023/07/10 07:28:03;;;;;;;18.98;12.70;;;22.40;40.30;;;;;;5074409;28;20436;-76
2023/07/10 07:30:29;;;;;;;18.93;11.80;;;22.50;40.20;;;;;;5074586;28;20384;-74
2023/07/10 07:32:55;;;;;;;20.00;11.50;;;22.20;39.30;;;;;;5075447;28;20391;-74
2023/07/10 07:35:21;;;;;;;16.92;10.70;;;22.20;39.50;;;;;;5074021;28;20757;-73
2023/07/10 07:37:47;;;;;;;15.73;9.27;;;22.10;39.70;;;;;;5073380;28;20383;-76
2023/07/10 07:40:12;;;;;;;13.67;7.93;;;22.30;38.00;;;;;;5073421;28;20376;-75
2023/07/10 07:42:38;;;;;;;28.73;16.02;;;22.40;36.80;;;;;;5073373;28;20387;-76
2023/07/10 07:45:04;;;;;;;10.43;7.65;;;22.40;35.60;;;;;;5055593;28;20387;-76
2023/07/10 07:47:31;;;;;;;12.35;7.60;;;22.10;36.40;;;;;;5073879;28;20380;-76
2023/07/10 07:49:56;;;;;;;13.18;7.13;;;22.00;36.30;;;;;;5055640;28;20391;-75
2023/07/10 07:52:22;;;;;;;11.80;7.10;;;22.00;36.20;;;;;;5072908;28;20458;-74
2023/07/10 07:54:48;;;;;;;13.07;6.32;;;22.10;36.00;;;;;;5057494;28;20922;-74
2023/07/10 07:57:14;;;;;;;8.65;5.00;;;22.10;36.00;;;;;;5077485;28;20399;-74
2023/07/10 07:59:39;;;;;;;9.23;5.05;;;22.20;34.70;;;;;;5079888;28;20387;-75
2023/07/10 08:02:05;;;;;;;9.97;4.97;;;22.20;33.90;;;;;;5081358;28;20379;-74
2023/07/10 08:04:31;;;;;;;12.90;6.10;;;22.30;33.70;;;;;;5063331;28;20746;-74
2023/07/10 08:06:57;;;;;;;9.13;5.40;;;22.30;33.60;;;;;;5078430;28;20406;-75
2023/07/10 08:09:22;;;;;;;9.38;4.78;;;22.50;34.00;;;;;;5080637;28;20387;-74
2023/07/10 08:11:48;;;;;;;14.03;5.50;;;22.60;33.80;;;;;;5080499;28;20404;-74
2023/07/10 08:14:13;;;;;;;9.63;5.45;;;22.60;32.90;;;;;;5061809;28;20402;-74
2023/07/10 08:16:39;;;;;;;8.60;5.40;;;22.50;33.70;;;;;;5078523;28;20743;-75
2023/07/10 08:19:04;;;;;;;8.10;5.05;;;22.50;34.30;;;;;;5077860;28;20380;-74
2023/07/10 08:21:30;;;;;;;12.80;5.97;;;22.70;33.50;;;;;;5085097;28;20383;-75
2023/07/10 08:23:55;;;;;;;11.15;5.05;;;22.90;33.90;;;;;;5078665;28;20390;-74
2023/07/10 08:26:21;;;;;;;9.47;4.73;;;22.90;33.70;;;;;;5074760;28;20441;-75
2023/07/10 08:28:46;;;;;;;13.88;5.20;;;23.10;32.30;;;;;;5074254;28;20457;-75
2023/07/10 08:31:12;;;;;;;6.80;4.10;;;23.00;31.00;;;;;;5080063;28;20380;-73
2023/07/10 08:33:38;;;;;;;4.13;2.80;;;23.00;31.20;;;;;;5086766;28;20388;-74
2023/07/10 08:36:06;;;;;;;5.55;2.70;;;23.00;27.30;;;;;;5088834;28;20460;-73
2023/07/10 08:38:33;;;;;;;4.97;3.03;;;22.90;26.50;;;;;;5085646;28;20372;-73
2023/07/10 08:41:20;;;;;;;5.63;2.80;;;23.00;25.50;;;;;;5063719;28;20385;-73
2023/07/10 08:43:47;;;;;;;4.15;3.20;;;23.20;26.50;;;;;;5080103;28;20376;-74
2023/07/10 08:46:25;;;;;;;7.13;3.50;;;23.20;26.40;;;;;;5071738;28;20527;-73
2023/07/10 08:48:58;;;;;;;7.77;2.80;;;23.30;26.20;;;;;;5072830;28;20384;-74
2023/07/10 08:51:47;;;;;;;6.83;2.70;;;23.40;26.20;;;;;;5072992;28;20387;-74
2023/07/10 08:54:18;;;;;;;3.63;2.00;;;23.40;23.00;;;;;;5071332;28;20455;-74
2023/07/10 08:57:05;;;;;;;5.90;2.28;;;23.30;21.80;;;;;;5054287;28;20403;-74
2023/07/10 08:59:52;;;;;;;5.32;2.15;;;23.40;21.10;;;;;;5070597;28;20379;-73
2023/07/10 09:02:39;;;;;;;5.57;2.47;;;23.30;20.80;;;;;;5070655;28;20455;-75
2023/07/10 09:05:07;;;;;;;6.05;2.30;;;23.30;21.10;;;;;;5070950;28;20372;-74
2023/07/10 09:07:42;;;;;;;4.88;1.80;;;23.20;21.70;;;;;;5070896;28;20793;-73
2023/07/10 09:10:26;;;;;;;7.28;2.20;;;23.40;22.10;;;;;;5071381;28;20384;-73
2023/07/10 09:12:54;;;;;;;6.78;2.35;;;23.50;21.90;;;;;;5037034;28;20387;-74
2023/07/10 09:15:27;;;;;;;3.80;2.20;;;23.60;22.10;;;;;;5072037;28;20403;-73
2023/07/10 09:18:10;;;;;;;5.55;2.00;;;23.60;22.70;;;;;;5072483;28;20471;-74
2023/07/10 09:20:37;;;;;;;6.60;2.45;;;23.80;22.70;;;;;;5072477;28;20379;-74
2023/07/10 09:23:17;;;;;;;4.78;2.38;;;23.70;21.20;;;;;;5071889;28;20455;-74
2023/07/10 09:25:43;;;;;;;6.10;2.53;;;23.70;21.50;;;;;;5071040;28;20398;-75
2023/07/10 09:28:09;;;;;;;4.60;2.30;;;23.70;21.90;;;;;;5071208;28;20868;-73
2023/07/10 09:30:58;;;;;;;7.10;2.70;;;23.80;21.20;;;;;;5071278;28;20387;-74
2023/07/10 09:33:43;;;;;;;7.40;2.90;;;23.80;20.60;;;;;;5071576;28;20463;-75
2023/07/10 09:36:14;;;;;;;5.30;2.15;;;23.80;21.40;;;;;;5071733;28;20391;-74
2023/07/10 09:38:44;;;;;;;5.55;2.30;;;23.90;19.90;;;;;;5071278;28;20379;-73
2023/07/10 09:41:12;;;;;;;4.57;1.80;;;24.00;19.70;;;;;;5071838;28;20875;-75
2023/07/10 09:43:38;;;;;;;4.65;2.00;;;24.00;19.90;;;;;;5071147;28;20387;-73
2023/07/10 09:46:04;;;;;;;5.45;2.10;;;24.10;19.40;;;;;;5070984;28;20379;-73
2023/07/10 09:48:29;;;;;;;11.00;2.60;;;24.20;18.80;;;;;;5070792;28;20491;-73
2023/07/10 09:51:00;;;;;;;3.10;2.20;;;24.20;18.50;;;;;;5070591;28;20474;-74
2023/07/10 09:53:28;;;;;;;5.00;2.20;;;24.30;19.00;;;;;;5071141;28;20382;-74
2023/07/10 09:55:54;;;;;;;5.75;2.28;;;24.30;18.10;;;;;;5053024;28;20403;-74
2023/07/10 09:58:19;;;;;;;4.13;2.10;;;24.20;18.30;;;;;;5071343;28;20394;-73
2023/07/10 10:00:45;;;;;;;8.43;2.23;;;24.30;18.40;;;;;;5053511;28;20426;-73
2023/07/10 10:03:24;;;;;;;4.65;2.00;;;24.50;18.70;;;;;;5071372;28;20785;-74
2023/07/10 10:05:57;;;;;;;6.43;2.30;;;24.50;17.40;;;;;;5071918;28;20392;-73
2023/07/10 10:08:31;;;;;;;6.85;2.30;;;24.50;17.60;;;;;;5071598;28;20819;-74
2023/07/10 10:11:01;;;;;;;6.43;2.20;;;24.70;17.90;;;;;;5072083;28;20388;-74
2023/07/10 10:13:30;;;;;;;6.05;2.30;;;24.80;17.70;;;;;;5079261;28;20384;-74
2023/07/10 10:16:03;;;;;;;6.15;2.50;;;24.80;17.40;;;;;;5084634;28;20486;-75
2023/07/10 10:18:50;;;;;;;5.43;2.55;;;24.80;17.20;;;;;;5078790;28;20396;-74
2023/07/10 10:21:19;;;;;;;8.18;2.80;;;24.80;17.70;;;;;;5080317;28;20873;-74
2023/07/10 10:23:47;;;;;;;5.40;2.70;;;24.60;18.10;;;;;;5081774;28;20411;-74
2023/07/10 10:26:21;;;;;;;9.45;3.00;;;24.70;18.00;;;;;;5083125;28;20865;-73
2023/07/10 10:29:25;;;;;;;5.22;2.38;;;24.60;17.50;;;;;;5082267;28;20440;-75
2023/07/10 10:32:17;;;;;;;6.13;2.40;;;24.60;18.30;;;;;;5065512;28;20412;-75
2023/07/10 10:35:15;;;;;;;5.68;2.70;;;24.80;18.60;;;;;;5080219;28;20702;-74
2023/07/10 10:37:55;;;;;;;5.18;2.50;;;24.90;17.60;;;;;;5080013;28;20384;-76
2023/07/10 10:40:35;;;;;;;4.63;2.30;;;25.00;16.80;;;;;;5081444;28;20383;-74
2023/07/10 10:43:33;;;;;;;4.97;2.53;;;25.10;16.80;;;;;;5083120;28;20458;-74
2023/07/10 10:46:29;;;;;;;4.63;1.75;;;25.10;16.40;;;;;;5083033;28;20383;-75
2023/07/10 10:49:15;;;;;;;6.90;2.60;;;25.20;16.30;;;;;;5065410;28;20452;-76
2023/07/10 10:52:09;;;;;;;5.30;2.30;;;25.40;16.10;;;;;;5084080;28;20452;-74
2023/07/10 10:54:53;;;;;;;5.38;2.20;;;25.60;15.50;;;;;;5075244;28;20423;-73
2023/07/10 10:57:37;;;;;;;5.90;2.45;;;25.60;15.80;;;;;;5079585;28;20412;-74
2023/07/10 11:00:46;;;;;;;6.13;2.60;;;25.60;15.40;;;;;;5078138;28;20939;-74
2023/07/10 11:03:32;;;;;;;4.70;2.40;;;25.70;15.50;;;;;;5078259;28;20384;-75
2023/07/10 11:06:14;;;;;;;6.75;2.30;;;25.60;15.40;;;;;;5078064;28;20423;-75
2023/07/10 11:08:49;;;;;;;5.00;2.15;;;25.60;15.60;;;;;;5077194;28;20790;-74
2023/07/10 11:11:23;;;;;;;6.25;2.70;;;25.50;14.90;;;;;;5075106;28;20384;-73
2023/07/10 11:13:49;;;;;;;6.75;2.58;;;25.60;15.50;;;;;;5055392;28;20388;-74
2023/07/10 11:16:15;;;;;;;8.32;2.28;;;25.60;15.50;;;;;;5073328;28;20503;-74
2023/07/10 11:18:41;;;;;;;7.50;2.40;;;25.70;14.70;;;;;;5073156;28;20431;-73
2023/07/10 11:21:07;;;;;;;5.60;2.40;;;25.70;14.50;;;;;;5074795;28;20414;-74
2023/07/10 11:23:43;;;;;;;8.32;1.92;;;25.60;15.80;;;;;;5074259;28;20867;-72
2023/07/10 11:26:17;;;;;;;7.25;2.20;;;25.80;14.70;;;;;;5074220;28;21149;-73
2023/07/10 11:28:57;;;;;;;6.90;2.30;;;25.90;14.30;;;;;;5073296;28;20384;-74
2023/07/10 11:31:29;;;;;;;7.30;1.98;;;25.90;14.40;;;;;;5072964;28;20927;-74
2023/07/10 11:34:14;;;;;;;6.57;2.40;;;26.10;14.60;;;;;;5073280;28;20458;-73
2023/07/10 11:36:42;;;;;;;5.78;1.92;;;26.10;13.90;;;;;;5073029;28;20435;-73
2023/07/10 11:39:10;;;;;;;4.38;1.70;;;26.20;14.10;;;;;;5073007;28;20433;-73
2023/07/10 11:41:42;;;;;;;4.38;1.90;;;26.40;13.50;;;;;;5073010;28;20372;-73
2023/07/10 11:44:31;;;;;;;4.88;2.30;;;26.20;14.90;;;;;;5073605;28;20409;-73
2023/07/10 11:47:05;;;;;;;7.55;2.28;;;26.40;13.50;;;;;;5075098;28;20387;-74
2023/07/10 11:49:44;;;;;;;5.93;2.00;;;26.60;12.80;;;;;;5072647;28;20380;-74
2023/07/10 11:52:15;;;;;;;6.05;2.28;;;27.00;13.00;;;;;;5072425;28;20395;-74
2023/07/10 11:54:47;;;;;;;8.43;2.10;;;27.10;12.60;;;;;;5072816;28;20748;-74
2023/07/10 11:57:23;;;;;;;7.78;2.20;;;26.90;12.30;;;;;;5072954;28;20438;-73
2023/07/10 12:00:24;;;;;;;5.30;2.10;;;26.80;12.00;;;;;;5072834;28;20378;-73
2023/07/10 12:02:52;;;;;;;4.45;2.10;;;26.70;12.50;;;;;;5071760;28;20888;-74
2023/07/10 12:05:20;;;;;;;5.22;1.92;;;26.60;12.70;;;;;;5055264;28;20403;-75
2023/07/10 12:07:56;;;;;;;7.25;2.03;;;26.80;13.10;;;;;;5072896;28;20470;-73
2023/07/10 12:10:24;;;;;;;6.72;2.08;;;26.70;11.00;;;;;;5072602;28;20371;-73
2023/07/10 12:12:51;;;;;;;6.73;2.13;;;26.80;11.90;;;;;;5072080;28;20440;-75
2023/07/10 12:15:18;;;;;;;6.80;2.00;;;27.00;11.80;;;;;;5072133;28;20399;-76
2023/07/10 12:17:43;;;;;;;4.10;1.88;;;27.30;9.30;;;;;;5072132;28;20756;-74
2023/07/10 12:20:25;;;;;;;6.10;1.70;;;27.40;9.50;;;;;;5053762;28;20380;-74
2023/07/10 12:22:53;;;;;;;7.28;1.90;;;27.60;8.50;;;;;;5053835;28;20395;-75
2023/07/10 12:25:19;;;;;;;3.20;2.00;;;27.60;9.30;;;;;;5071835;28;20860;-75
2023/07/10 12:27:45;;;;;;;3.70;1.60;;;27.60;10.00;;;;;;5071899;28;20396;-74
2023/07/10 12:30:19;;;;;;;5.67;2.17;;;27.60;9.30;;;;;;5071895;28;20379;-74
2023/07/10 12:32:47;;;;;;;4.97;2.07;;;27.50;9.00;;;;;;5071758;28;20490;-74
2023/07/10 12:35:42;;;;;;;4.70;1.70;;;27.70;9.60;;;;;;5071919;28;20896;-74
2023/07/10 12:38:11;;;;;;;3.50;1.90;;;27.90;9.10;;;;;;5062957;28;20431;-74
2023/07/10 12:40:38;;;;;;;5.50;2.00;;;27.90;9.80;;;;;;5071800;28;20433;-73
2023/07/10 12:43:25;;;;;;;5.97;2.00;;;28.00;9.20;;;;;;5054145;28;20386;-73
2023/07/10 12:46:00;;;;;;;6.18;2.20;;;27.90;9.40;;;;;;5086183;28;20387;-74
2023/07/10 12:48:30;;;;;;;6.40;1.80;;;28.00;8.30;;;;;;5087934;28;20399;-73